sensor_id;sensor_type;location;lat;lon;timestamp;pressure;altitude;pressure_sealevel;temperature;humidity
54306;BME280;66145;45.188;5.712;2023-02-08T00:02:16;100677.25;;;16.76;43.63
54306;BME280;66145;45.188;5.712;2023-02-08T00:04:42;100649.28;;;16.58;43.50
54306;BME280;66145;45.188;5.712;2023-02-08T00:07:07;100688.47;;;16.80;43.25
54306;BME280;66145;45.188;5.712;2023-02-08T00:09:32;100679.19;;;16.76;43.22
54306;BME280;66145;45.188;5.712;2023-02-08T00:11:58;100643.59;;;16.60;43.31
54306;BME280;66145;45.188;5.712;2023-02-08T00:14:23;100672.88;;;16.75;43.28
54306;BME280;66145;45.188;5.712;2023-02-08T00:16:49;100667.09;;;16.66;43.33
54306;BME280;66145;45.188;5.712;2023-02-08T00:19:14;100676.72;;;16.79;43.38
54306;BME280;66145;45.188;5.712;2023-02-08T00:21:39;100661.38;;;16.73;43.39
54306;BME280;66145;45.188;5.712;2023-02-08T00:24:05;100649.28;;;16.58;43.48
54306;BME280;66145;45.188;5.712;2023-02-08T00:26:30;100675.88;;;16.73;43.31
54306;BME280;66145;45.188;5.712;2023-02-08T00:28:56;100666.84;;;16.73;43.50
54306;BME280;66145;45.188;5.712;2023-02-08T00:31:21;100601.34;;;16.30;43.39
54306;BME280;66145;45.188;5.712;2023-02-08T00:33:46;100675.59;;;16.75;43.35
54306;BME280;66145;45.188;5.712;2023-02-08T00:36:12;100665.75;;;16.74;43.29
54306;BME280;66145;45.188;5.712;2023-02-08T00:38:37;100654.00;;;16.68;43.47
54306;BME280;66145;45.188;5.712;2023-02-08T00:41:03;100634.53;;;16.54;43.03
54306;BME280;66145;45.188;5.712;2023-02-08T00:43:28;100612.34;;;16.40;43.28
54306;BME280;66145;45.188;5.712;2023-02-08T00:45:55;100641.13;;;16.64;43.21
54306;BME280;66145;45.188;5.712;2023-02-08T00:48:20;100651.25;;;16.68;43.03
54306;BME280;66145;45.188;5.712;2023-02-08T00:50:57;100635.59;;;16.53;43.19
54306;BME280;66145;45.188;5.712;2023-02-08T00:53:22;100575.94;;;16.19;43.32
54306;BME280;66145;45.188;5.712;2023-02-08T00:55:52;100620.53;;;16.46;42.88
54306;BME280;66145;45.188;5.712;2023-02-08T00:58:17;100628.78;;;16.51;42.99
54306;BME280;66145;45.188;5.712;2023-02-08T01:00:43;100673.94;;;16.69;42.99
54306;BME280;66145;45.188;5.712;2023-02-08T01:03:08;100661.63;;;16.66;42.84
54306;BME280;66145;45.188;5.712;2023-02-08T01:05:36;100665.44;;;16.60;42.88
54306;BME280;66145;45.188;5.712;2023-02-08T01:08:02;100633.94;;;16.47;42.85
54306;BME280;66145;45.188;5.712;2023-02-08T01:10:28;100623.00;;;16.42;43.03
54306;BME280;66145;45.188;5.712;2023-02-08T01:12:53;100641.06;;;16.48;42.64
54306;BME280;66145;45.188;5.712;2023-02-08T01:15:19;100632.28;;;16.41;43.10
54306;BME280;66145;45.188;5.712;2023-02-08T01:17:44;100591.72;;;16.12;43.07
54306;BME280;66145;45.188;5.712;2023-02-08T01:20:10;100673.09;;;16.63;42.93
54306;BME280;66145;45.188;5.712;2023-02-08T01:22:35;100559.13;;;15.95;42.90
54306;BME280;66145;45.188;5.712;2023-02-08T01:25:01;100651.47;;;16.51;42.77
54306;BME280;66145;45.188;5.712;2023-02-08T01:27:26;100679.63;;;16.62;42.85
54306;BME280;66145;45.188;5.712;2023-02-08T01:29:51;100672.28;;;16.63;42.83
54306;BME280;66145;45.188;5.712;2023-02-08T01:32:17;100606.72;;;16.15;42.71
54306;BME280;66145;45.188;5.712;2023-02-08T01:34:42;100671.16;;;16.58;42.81
54306;BME280;66145;45.188;5.712;2023-02-08T01:37:08;100649.81;;;16.50;42.60
54306;BME280;66145;45.188;5.712;2023-02-08T01:39:33;100598.53;;;16.15;42.61
54306;BME280;66145;45.188;5.712;2023-02-08T01:41:58;100667.59;;;16.58;42.40
54306;BME280;66145;45.188;5.712;2023-02-08T01:47:27;100662.16;;;16.63;42.70
54306;BME280;66145;45.188;5.712;2023-02-08T01:49:52;100623.53;;;16.39;42.53
54306;BME280;66145;45.188;5.712;2023-02-08T01:52:20;100632.03;;;16.42;42.08
54306;BME280;66145;45.188;5.712;2023-02-08T01:55:14;100656.69;;;16.63;42.49
54306;BME280;66145;45.188;5.712;2023-02-08T01:57:41;100665.72;;;16.64;42.60
54306;BME280;66145;45.188;5.712;2023-02-08T02:00:13;100618.03;;;16.34;42.36
54306;BME280;66145;45.188;5.712;2023-02-08T02:02:41;100647.09;;;16.50;42.49
54306;BME280;66145;45.188;5.712;2023-02-08T02:05:07;100619.44;;;16.41;41.64
54306;BME280;66145;45.188;5.712;2023-02-08T02:07:33;100626.28;;;16.44;42.36
54306;BME280;66145;45.188;5.712;2023-02-08T02:10:09;100622.75;;;16.44;42.22
54306;BME280;66145;45.188;5.712;2023-02-08T02:12:37;100622.97;;;16.37;42.47
54306;BME280;66145;45.188;5.712;2023-02-08T02:15:03;100595.59;;;16.26;42.48
54306;BME280;66145;45.188;5.712;2023-02-08T02:17:29;100645.19;;;16.56;42.44
54306;BME280;66145;45.188;5.712;2023-02-08T02:25:23;100583.03;;;16.25;42.15
54306;BME280;66145;45.188;5.712;2023-02-08T02:38:35;100638.41;;;16.64;41.80
54306;BME280;66145;45.188;5.712;2023-02-08T02:41:49;100638.41;;;16.64;41.89
54306;BME280;66145;45.188;5.712;2023-02-08T02:52:58;100615.94;;;16.51;40.84
54306;BME280;66145;45.188;5.712;2023-02-08T02:55:28;100597.03;;;16.39;40.68
54306;BME280;66145;45.188;5.712;2023-02-08T02:57:56;100620.84;;;16.54;40.51
54306;BME280;66145;45.188;5.712;2023-02-08T03:00:25;100613.22;;;16.51;40.48
54306;BME280;66145;45.188;5.712;2023-02-08T03:02:52;100624.75;;;16.64;39.82
54306;BME280;66145;45.188;5.712;2023-02-08T03:05:19;100623.66;;;16.65;40.01
54306;BME280;66145;45.188;5.712;2023-02-08T03:20:10;100637.53;;;16.53;39.80
54306;BME280;66145;45.188;5.712;2023-02-08T03:25:30;100650.09;;;16.54;39.70
54306;BME280;66145;45.188;5.712;2023-02-08T03:28:12;100631.75;;;16.44;39.77
54306;BME280;66145;45.188;5.712;2023-02-08T03:30:50;100671.19;;;16.64;39.73
54306;BME280;66145;45.188;5.712;2023-02-08T03:33:29;100657.78;;;16.57;39.69
54306;BME280;66145;45.188;5.712;2023-02-08T03:36:38;100673.09;;;16.63;39.97
54306;BME280;66145;45.188;5.712;2023-02-08T03:39:11;100652.00;;;16.53;39.57
54306;BME280;66145;45.188;5.712;2023-02-08T03:41:39;100667.34;;;16.60;39.58
54306;BME280;66145;45.188;5.712;2023-02-08T03:46:51;100658.81;;;16.51;39.84
54306;BME280;66145;45.188;5.712;2023-02-08T03:49:23;100590.28;;;16.04;39.65
54306;BME280;66145;45.188;5.712;2023-02-08T03:51:51;100661.03;;;16.54;39.72
54306;BME280;66145;45.188;5.712;2023-02-08T03:54:20;100650.88;;;16.44;39.67
54306;BME280;66145;45.188;5.712;2023-02-08T03:57:14;100675.25;;;16.56;39.39
54306;BME280;66145;45.188;5.712;2023-02-08T03:59:46;100639.66;;;16.40;39.73
54306;BME280;66145;45.188;5.712;2023-02-08T04:02:17;100679.91;;;16.61;39.58
54306;BME280;66145;45.188;5.712;2023-02-08T04:04:45;100653.59;;;16.44;39.74
54306;BME280;66145;45.188;5.712;2023-02-08T04:07:12;100673.84;;;16.53;39.32
54306;BME280;66145;45.188;5.712;2023-02-08T04:09:37;100674.13;;;16.52;39.62
54306;BME280;66145;45.188;5.712;2023-02-08T04:12:03;100578.19;;;15.90;39.55
54306;BME280;66145;45.188;5.712;2023-02-08T04:14:28;100608.88;;;16.07;39.34
54306;BME280;66145;45.188;5.712;2023-02-08T04:16:54;100613.53;;;16.12;39.75
54306;BME280;66145;45.188;5.712;2023-02-08T04:19:19;100687.53;;;16.58;39.37
54306;BME280;66145;45.188;5.712;2023-02-08T04:21:44;100656.03;;;16.40;39.50
54306;BME280;66145;45.188;5.712;2023-02-08T04:24:10;100598.19;;;16.01;39.40
54306;BME280;66145;45.188;5.712;2023-02-08T04:26:35;100676.34;;;16.55;39.53
54306;BME280;66145;45.188;5.712;2023-02-08T04:29:00;100656.56;;;16.37;39.36
54306;BME280;66145;45.188;5.712;2023-02-08T04:31:26;100636.56;;;16.26;39.65
54306;BME280;66145;45.188;5.712;2023-02-08T04:33:51;100669.97;;;16.44;39.38
54306;BME280;66145;45.188;5.712;2023-02-08T04:36:17;100690.03;;;16.60;39.22
54306;BME280;66145;45.188;5.712;2023-02-08T04:38:42;100673.78;;;16.43;39.48
54306;BME280;66145;45.188;5.712;2023-02-08T04:41:07;100669.69;;;16.40;39.43
54306;BME280;66145;45.188;5.712;2023-02-08T04:43:33;100667.47;;;16.37;39.56
54306;BME280;66145;45.188;5.712;2023-02-08T04:45:59;100692.97;;;16.53;39.47
54306;BME280;66145;45.188;5.712;2023-02-08T04:48:25;100601.16;;;15.94;39.38
54306;BME280;66145;45.188;5.712;2023-02-08T04:50:54;100692.16;;;16.53;39.57
54306;BME280;66145;45.188;5.712;2023-02-08T04:53:19;100698.75;;;16.57;39.39
54306;BME280;66145;45.188;5.712;2023-02-08T04:55:45;100653.22;;;16.30;39.57
54306;BME280;66145;45.188;5.712;2023-02-08T04:58:10;100675.47;;;16.49;39.49
54306;BME280;66145;45.188;5.712;2023-02-08T05:00:36;100650.81;;;16.34;39.20
54306;BME280;66145;45.188;5.712;2023-02-08T05:03:01;100649.97;;;16.33;39.45
54306;BME280;66145;45.188;5.712;2023-02-08T05:05:26;100687.78;;;16.52;39.37
54306;BME280;66145;45.188;5.712;2023-02-08T05:07:52;100688.63;;;16.57;39.40
54306;BME280;66145;45.188;5.712;2023-02-08T05:10:18;100656.84;;;16.36;39.51
54306;BME280;66145;45.188;5.712;2023-02-08T05:12:44;100682.31;;;16.52;39.58
54306;BME280;66145;45.188;5.712;2023-02-08T05:15:10;100683.16;;;16.52;39.21
54306;BME280;66145;45.188;5.712;2023-02-08T05:17:36;100648.09;;;16.34;39.29
54306;BME280;66145;45.188;5.712;2023-02-08T05:20:03;100637.69;;;16.31;39.34
54306;BME280;66145;45.188;5.712;2023-02-08T05:22:30;100675.16;;;16.46;39.32
54306;BME280;66145;45.188;5.712;2023-02-08T05:24:56;100689.72;;;16.56;39.05
54306;BME280;66145;45.188;5.712;2023-02-08T05:27:21;100678.78;;;16.51;39.19
54306;BME280;66145;45.188;5.712;2023-02-08T05:29:46;100679.88;;;16.50;39.21
54306;BME280;66145;45.188;5.712;2023-02-08T05:32:12;100658.47;;;16.37;39.23
54306;BME280;66145;45.188;5.712;2023-02-08T05:34:37;100666.16;;;16.45;39.23
54306;BME280;66145;45.188;5.712;2023-02-08T05:37:03;100640.66;;;16.29;39.28
54306;BME280;66145;45.188;5.712;2023-02-08T05:39:28;100623.41;;;16.18;39.33
54306;BME280;66145;45.188;5.712;2023-02-08T05:41:53;100683.44;;;16.56;39.34
54306;BME280;66145;45.188;5.712;2023-02-08T05:44:19;100675.50;;;16.54;39.22
54306;BME280;66145;45.188;5.712;2023-02-08T05:46:44;100686.41;;;16.54;39.35
54306;BME280;66145;45.188;5.712;2023-02-08T05:49:09;100663.66;;;16.38;39.33
54306;BME280;66145;45.188;5.712;2023-02-08T05:51:35;100687.25;;;16.55;39.17
54306;BME280;66145;45.188;5.712;2023-02-08T05:54:00;100690.00;;;16.55;39.36
54306;BME280;66145;45.188;5.712;2023-02-08T05:56:26;100584.44;;;15.85;39.31
54306;BME280;66145;45.188;5.712;2023-02-08T05:58:52;100682.03;;;16.53;39.19
54306;BME280;66145;45.188;5.712;2023-02-08T06:01:18;100656.53;;;16.32;39.16
54306;BME280;66145;45.188;5.712;2023-02-08T06:03:44;100629.63;;;16.08;39.31
54306;BME280;66145;45.188;5.712;2023-02-08T06:06:09;100646.69;;;16.26;39.11
54306;BME280;66145;45.188;5.712;2023-02-08T06:08:38;100690.50;;;16.52;39.12
54306;BME280;66145;45.188;5.712;2023-02-08T06:11:04;100653.78;;;16.32;39.14
54306;BME280;66145;45.188;5.712;2023-02-08T06:13:30;100654.59;;;16.27;39.21
54306;BME280;66145;45.188;5.712;2023-02-08T06:15:56;100672.94;;;16.37;39.05
54306;BME280;66145;45.188;5.712;2023-02-08T06:18:21;100674.59;;;16.38;39.03
54306;BME280;66145;45.188;5.712;2023-02-08T06:20:51;100686.31;;;16.39;38.99
54306;BME280;66145;45.188;5.712;2023-02-08T06:23:17;100679.22;;;16.38;38.97
54306;BME280;66145;45.188;5.712;2023-02-08T06:25:42;100706.84;;;16.47;39.04
54306;BME280;66145;45.188;5.712;2023-02-08T06:28:07;100709.63;;;16.52;39.17
54306;BME280;66145;45.188;5.712;2023-02-08T06:30:35;100703.03;;;16.48;39.13
54306;BME280;66145;45.188;5.712;2023-02-08T06:33:01;100670.16;;;16.27;38.90
54306;BME280;66145;45.188;5.712;2023-02-08T06:35:26;100713.44;;;16.51;39.20
54306;BME280;66145;45.188;5.712;2023-02-08T06:37:51;100683.03;;;16.32;39.23
54306;BME280;66145;45.188;5.712;2023-02-08T06:40:17;100717.25;;;16.50;39.34
54306;BME280;66145;45.188;5.712;2023-02-08T06:42:42;100644.31;;;16.02;39.25
54306;BME280;66145;45.188;5.712;2023-02-08T06:45:08;100705.72;;;16.37;39.45
54306;BME280;66145;45.188;5.712;2023-02-08T06:47:34;100724.88;;;16.48;39.22
54306;BME280;66145;45.188;5.712;2023-02-08T06:49:59;100632.69;;;15.85;39.13
54306;BME280;66145;45.188;5.712;2023-02-08T06:52:24;100722.44;;;16.46;39.17
54306;BME280;66145;45.188;5.712;2023-02-08T06:54:50;100731.44;;;16.47;39.04
54306;BME280;66145;45.188;5.712;2023-02-08T06:57:15;100741.56;;;16.46;39.09
54306;BME280;66145;45.188;5.712;2023-02-08T06:59:41;100735.75;;;16.37;38.91
54306;BME280;66145;45.188;5.712;2023-02-08T07:02:15;100741.81;;;16.45;38.92
54306;BME280;66145;45.188;5.712;2023-02-08T07:04:41;100747.53;;;16.43;39.17
54306;BME280;66145;45.188;5.712;2023-02-08T07:07:06;100712.72;;;16.23;39.46
54306;BME280;66145;45.188;5.712;2023-02-08T07:09:33;100730.81;;;16.34;39.08
54306;BME280;66145;45.188;5.712;2023-02-08T07:11:58;100740.69;;;16.40;39.05
54306;BME280;66145;45.188;5.712;2023-02-08T07:14:26;100663.59;;;15.90;39.37
54306;BME280;66145;45.188;5.712;2023-02-08T07:16:51;100739.06;;;16.39;39.30
54306;BME280;66145;45.188;5.712;2023-02-08T07:19:16;100712.16;;;16.21;39.11
54306;BME280;66145;45.188;5.712;2023-02-08T07:21:42;100750.78;;;16.40;39.22
54306;BME280;66145;45.188;5.712;2023-02-08T07:24:07;100706.91;;;16.14;39.20
54306;BME280;66145;45.188;5.712;2023-02-08T07:26:32;100742.81;;;16.33;39.03
54306;BME280;66145;45.188;5.712;2023-02-08T07:28:58;100648.69;;;15.71;39.27
54306;BME280;66145;45.188;5.712;2023-02-08T07:31:24;100741.16;;;16.27;39.44
54306;BME280;66145;45.188;5.712;2023-02-08T07:33:49;100709.59;;;16.09;39.12
54306;BME280;66145;45.188;5.712;2023-02-08T07:36:15;100754.00;;;16.32;39.25
54306;BME280;66145;45.188;5.712;2023-02-08T07:38:40;100741.38;;;16.20;39.08
54306;BME280;66145;45.188;5.712;2023-02-08T07:41:08;100766.59;;;16.33;38.88
54306;BME280;66145;45.188;5.712;2023-02-08T07:43:36;100747.66;;;16.21;39.18
54306;BME280;66145;45.188;5.712;2023-02-08T07:46:06;100752.31;;;16.25;39.26
54306;BME280;66145;45.188;5.712;2023-02-08T07:48:31;100728.19;;;16.12;39.07
54306;BME280;66145;45.188;5.712;2023-02-08T07:50:57;100768.47;;;16.27;38.67
54306;BME280;66145;45.188;5.712;2023-02-08T07:53:22;100769.84;;;16.30;38.93
54306;BME280;66145;45.188;5.712;2023-02-08T07:55:47;100679.00;;;15.74;39.03
54306;BME280;66145;45.188;5.712;2023-02-08T07:58:13;100712.47;;;15.92;39.08
54306;BME280;66145;45.188;5.712;2023-02-08T08:00:38;100769.25;;;16.27;38.98
54306;BME280;66145;45.188;5.712;2023-02-08T08:03:04;100732.22;;;16.04;39.05
54306;BME280;66145;45.188;5.712;2023-02-08T08:05:29;100766.47;;;16.17;39.25
54306;BME280;66145;45.188;5.712;2023-02-08T08:07:54;100768.63;;;16.15;38.97
54306;BME280;66145;45.188;5.712;2023-02-08T08:10:20;100759.34;;;16.16;39.04
54306;BME280;66145;45.188;5.712;2023-02-08T08:12:45;100699.75;;;15.80;39.06
54306;BME280;66145;45.188;5.712;2023-02-08T08:15:10;100772.72;;;16.18;38.81
54306;BME280;66145;45.188;5.712;2023-02-08T08:17:39;100700.81;;;15.74;38.90
54306;BME280;66145;45.188;5.712;2023-02-08T08:20:07;100747.47;;;16.00;38.90
54306;BME280;66145;45.188;5.712;2023-02-08T08:22:33;100701.06;;;15.73;38.97
54306;BME280;66145;45.188;5.712;2023-02-08T08:24:58;100711.44;;;15.71;39.02
54306;BME280;66145;45.188;5.712;2023-02-08T08:27:24;100785.88;;;16.21;38.80
54306;BME280;66145;45.188;5.712;2023-02-08T08:29:49;100774.03;;;16.10;39.10
54306;BME280;66145;45.188;5.712;2023-02-08T08:32:15;100776.53;;;16.17;38.91
54306;BME280;66145;45.188;5.712;2023-02-08T08:34:40;100785.00;;;16.15;38.89
54306;BME280;66145;45.188;5.712;2023-02-08T08:37:06;100759.50;;;16.04;38.81
54306;BME280;66145;45.188;5.712;2023-02-08T08:39:31;100788.81;;;16.14;38.76
54306;BME280;66145;45.188;5.712;2023-02-08T08:41:57;100734.44;;;15.80;38.80
54306;BME280;66145;45.188;5.712;2023-02-08T08:44:23;100760.88;;;16.02;38.90
54306;BME280;66145;45.188;5.712;2023-02-08T08:46:48;100771.56;;;16.08;39.00
54306;BME280;66145;45.188;5.712;2023-02-08T08:49:14;100795.66;;;16.17;38.82
54306;BME280;66145;45.188;5.712;2023-02-08T08:51:39;100723.16;;;15.71;38.87
54306;BME280;66145;45.188;5.712;2023-02-08T08:54:05;100795.66;;;16.17;39.05
54306;BME280;66145;45.188;5.712;2023-02-08T08:56:31;100793.19;;;16.15;38.97
54306;BME280;66145;45.188;5.712;2023-02-08T08:58:57;100805.75;;;16.16;38.93
54306;BME280;66145;45.188;5.712;2023-02-08T09:01:23;100776.41;;;16.01;38.88
54306;BME280;66145;45.188;5.712;2023-02-08T09:03:48;100770.38;;;15.99;38.93
54306;BME280;66145;45.188;5.712;2023-02-08T09:06:14;100729.13;;;15.68;38.89
54306;BME280;66145;45.188;5.712;2023-02-08T09:08:39;100789.84;;;16.08;38.94
54306;BME280;66145;45.188;5.712;2023-02-08T09:11:11;100796.16;;;16.14;38.95
54306;BME280;66145;45.188;5.712;2023-02-08T09:13:38;100764.06;;;15.93;39.21
54306;BME280;66145;45.188;5.712;2023-02-08T09:16:17;100773.94;;;16.00;38.77
54306;BME280;66145;45.188;5.712;2023-02-08T09:18:43;100800.81;;;16.13;39.33
54306;BME280;66145;45.188;5.712;2023-02-08T09:21:11;100781.00;;;15.95;38.95
54306;BME280;66145;45.188;5.712;2023-02-08T09:23:37;100769.81;;;15.97;38.86
54306;BME280;66145;45.188;5.712;2023-02-08T09:26:04;100801.91;;;16.12;38.97
54306;BME280;66145;45.188;5.712;2023-02-08T09:28:30;100786.28;;;16.07;38.93
54306;BME280;66145;45.188;5.712;2023-02-08T09:30:56;100787.09;;;16.08;38.86
54306;BME280;66145;45.188;5.712;2023-02-08T09:33:21;100771.44;;;15.98;38.83
54306;BME280;66145;45.188;5.712;2023-02-08T09:35:46;100788.50;;;16.10;38.79
54306;BME280;66145;45.188;5.712;2023-02-08T09:38:12;100774.19;;;15.98;38.96
54306;BME280;66145;45.188;5.712;2023-02-08T09:41:00;100788.75;;;16.09;39.08
54306;BME280;66145;45.188;5.712;2023-02-08T09:46:37;100776.16;;;16.03;38.72
54306;BME280;66145;45.188;5.712;2023-02-08T09:49:10;100747.56;;;15.83;38.60
54306;BME280;66145;45.188;5.712;2023-02-08T09:51:44;100791.47;;;16.09;38.83
54306;BME280;66145;45.188;5.712;2023-02-08T09:54:21;100783.28;;;16.04;38.56
54306;BME280;66145;45.188;5.712;2023-02-08T09:56:49;100767.34;;;15.95;38.90
54306;BME280;66145;45.188;5.712;2023-02-08T09:59:27;100774.72;;;15.95;38.53
54306;BME280;66145;45.188;5.712;2023-02-08T10:02:27;100787.69;;;16.10;39.10
54306;BME280;66145;45.188;5.712;2023-02-08T10:07:31;100786.53;;;16.06;38.75
54306;BME280;66145;45.188;5.712;2023-02-08T10:10:03;100749.41;;;15.77;38.91
54306;BME280;66145;45.188;5.712;2023-02-08T10:13:09;100777.97;;;15.92;39.03
54306;BME280;66145;45.188;5.712;2023-02-08T10:26:44;100792.25;;;16.04;38.75
54306;BME280;66145;45.188;5.712;2023-02-08T10:32:05;100795.06;;;16.15;38.99
54306;BME280;66145;45.188;5.712;2023-02-08T10:34:45;100774.53;;;16.07;38.97
54306;BME280;66145;45.188;5.712;2023-02-08T10:37:23;100778.09;;;16.07;38.83
54306;BME280;66145;45.188;5.712;2023-02-08T10:39:49;100783.06;;;16.10;38.80
54306;BME280;66145;45.188;5.712;2023-02-08T10:42:18;100772.66;;;16.12;39.00
54306;BME280;66145;45.188;5.712;2023-02-08T10:47:46;100774.88;;;16.16;39.12
54306;BME280;66145;45.188;5.712;2023-02-08T10:50:18;100768.34;;;16.17;39.01
54306;BME280;66145;45.188;5.712;2023-02-08T10:52:45;100773.25;;;16.15;38.84
54306;BME280;66145;45.188;5.712;2023-02-08T10:55:17;100744.94;;;15.93;39.03
54306;BME280;66145;45.188;5.712;2023-02-08T10:57:44;100758.22;;;16.12;39.10
54306;BME280;66145;45.188;5.712;2023-02-08T11:00:19;100717.53;;;15.83;38.90
54306;BME280;66145;45.188;5.712;2023-02-08T11:02:45;100734.91;;;15.99;38.88
54306;BME280;66145;45.188;5.712;2023-02-08T11:05:34;100730.84;;;16.02;38.89
54306;BME280;66145;45.188;5.712;2023-02-08T11:08:09;100690.16;;;15.73;38.75
54306;BME280;66145;45.188;5.712;2023-02-08T11:10:36;100717.94;;;15.97;39.23
54306;BME280;66145;45.188;5.712;2023-02-08T11:13:17;100720.44;;;15.99;39.00
54306;BME280;66145;45.188;5.712;2023-02-08T11:15:54;100734.81;;;16.21;39.33
54306;BME280;66145;45.188;5.712;2023-02-08T11:18:30;100729.56;;;16.15;39.11
54306;BME280;66145;45.188;5.712;2023-02-08T11:21:05;100718.91;;;16.13;38.74
54306;BME280;66145;45.188;5.712;2023-02-08T11:23:40;100728.25;;;16.22;39.05
54306;BME280;66145;45.188;5.712;2023-02-08T11:29:13;100712.16;;;16.21;39.24
54306;BME280;66145;45.188;5.712;2023-02-08T11:31:55;100709.16;;;16.22;39.34
54306;BME280;66145;45.188;5.712;2023-02-08T11:34:33;100709.97;;;16.23;39.08
54306;BME280;66145;45.188;5.712;2023-02-08T11:37:04;100630.97;;;15.73;39.05
54306;BME280;66145;45.188;5.712;2023-02-08T11:39:41;100697.13;;;16.18;39.02
54306;BME280;66145;45.188;5.712;2023-02-08T11:42:18;100685.06;;;16.14;39.00
54306;BME280;66145;45.188;5.712;2023-02-08T11:44:45;100596.75;;;15.60;39.19
54306;BME280;66145;45.188;5.712;2023-02-08T11:47:15;100690.59;;;16.24;39.30
54306;BME280;66145;45.188;5.712;2023-02-08T11:49:45;100655.78;;;16.04;39.31
54306;BME280;66145;45.188;5.712;2023-02-08T11:52:24;100663.25;;;16.14;39.35
54306;BME280;66145;45.188;5.712;2023-02-08T11:54:52;100643.78;;;16.05;39.23
54306;BME280;66145;45.188;5.712;2023-02-08T11:57:24;100686.53;;;16.27;39.42
54306;BME280;66145;45.188;5.712;2023-02-08T11:59:51;100664.09;;;16.20;39.37
54306;BME280;66145;45.188;5.712;2023-02-08T12:02:37;100671.81;;;16.28;39.42
54306;BME280;66145;45.188;5.712;2023-02-08T12:05:14;100634.56;;;16.11;39.48
54306;BME280;66145;45.188;5.712;2023-02-08T12:07:58;100658.16;;;16.28;39.19
54306;BME280;66145;45.188;5.712;2023-02-08T12:10:52;100649.09;;;16.22;39.28
54306;BME280;66145;45.188;5.712;2023-02-08T12:21:44;100632.41;;;16.19;39.55
54306;BME280;66145;45.188;5.712;2023-02-08T12:27:16;100633.31;;;16.30;39.57
54306;BME280;66145;45.188;5.712;2023-02-08T12:30:34;100626.75;;;16.31;39.57
54306;BME280;66145;45.188;5.712;2023-02-08T12:41:30;100604.13;;;16.35;39.58
54306;BME280;66145;45.188;5.712;2023-02-08T12:44:04;100533.41;;;15.86;39.85
54306;BME280;66145;45.188;5.712;2023-02-08T12:52:06;100577.34;;;15.89;41.36
54306;BME280;66145;45.188;5.712;2023-02-08T12:54:44;100573.53;;;15.85;41.68
54306;BME280;66145;45.188;5.712;2023-02-08T12:57:15;100554.03;;;15.71;42.06
54306;BME280;66145;45.188;5.712;2023-02-08T12:59:48;100524.22;;;15.59;41.91
54306;BME280;66145;45.188;5.712;2023-02-08T13:02:21;100556.22;;;15.74;42.12
54306;BME280;66145;45.188;5.712;2023-02-08T13:04:52;100552.44;;;15.80;42.13
54306;BME280;66145;45.188;5.712;2023-02-08T13:07:28;100538.44;;;15.66;42.24
54306;BME280;66145;45.188;5.712;2023-02-08T13:10:10;100536.53;;;15.67;42.88
54306;BME280;66145;45.188;5.712;2023-02-08T13:12:41;100542.06;;;15.77;42.60
54306;BME280;66145;45.188;5.712;2023-02-08T13:15:16;100508.63;;;15.55;42.67
54306;BME280;66145;45.188;5.712;2023-02-08T13:20:43;100533.31;;;15.75;42.86
54306;BME280;66145;45.188;5.712;2023-02-08T13:23:17;100444.00;;;15.17;42.92
54306;BME280;66145;45.188;5.712;2023-02-08T13:25:44;100497.72;;;15.55;42.68
54306;BME280;66145;45.188;5.712;2023-02-08T13:28:17;100500.19;;;15.56;42.77
54306;BME280;66145;45.188;5.712;2023-02-08T13:30:46;100493.97;;;15.61;42.93
54306;BME280;66145;45.188;5.712;2023-02-08T13:33:22;100499.97;;;15.63;42.96
54306;BME280;66145;45.188;5.712;2023-02-08T13:35:51;100436.97;;;15.21;42.80
54306;BME280;66145;45.188;5.712;2023-02-08T13:38:27;100508.50;;;15.72;43.14
54306;BME280;66145;45.188;5.712;2023-02-08T13:41:24;100509.28;;;15.72;42.97
54306;BME280;66145;45.188;5.712;2023-02-08T13:46:19;100477.50;;;15.50;42.78
54306;BME280;66145;45.188;5.712;2023-02-08T13:56:44;100498.09;;;15.69;43.06
54306;BME280;66145;45.188;5.712;2023-02-08T13:59:36;100497.25;;;15.68;42.98
54306;BME280;66145;45.188;5.712;2023-02-08T14:04:41;100474.81;;;15.56;42.99
54306;BME280;66145;45.188;5.712;2023-02-08T14:17:48;100461.13;;;15.45;43.11
54306;BME280;66145;45.188;5.712;2023-02-08T14:20:34;100462.78;;;15.46;43.34
54306;BME280;66145;45.188;5.712;2023-02-08T14:23:20;100486.59;;;15.61;43.00
54306;BME280;66145;45.188;5.712;2023-02-08T14:25:48;100465.53;;;15.51;42.99
54306;BME280;66145;45.188;5.712;2023-02-08T14:28:43;100488.22;;;15.62;43.16
54306;BME280;66145;45.188;5.712;2023-02-08T14:31:11;100398.19;;;15.09;43.39
54306;BME280;66145;45.188;5.712;2023-02-08T14:33:49;100476.19;;;15.53;43.02
54306;BME280;66145;45.188;5.712;2023-02-08T14:36:30;100490.16;;;15.62;43.12
54306;BME280;66145;45.188;5.712;2023-02-08T14:41:43;100452.63;;;15.42;43.39
54306;BME280;66145;45.188;5.712;2023-02-08T14:49:51;100482.19;;;15.55;43.08
54306;BME280;66145;45.188;5.712;2023-02-08T14:52:23;100476.13;;;15.48;43.27
54306;BME280;66145;45.188;5.712;2023-02-08T14:55:07;100480.28;;;15.56;43.16
54306;BME280;66145;45.188;5.712;2023-02-08T14:57:39;100494.22;;;15.59;43.27
54306;BME280;66145;45.188;5.712;2023-02-08T15:00:21;100495.03;;;15.60;43.30
54306;BME280;66145;45.188;5.712;2023-02-08T15:02:48;100491.75;;;15.58;43.18
54306;BME280;66145;45.188;5.712;2023-02-08T15:05:23;100455.91;;;15.39;43.35
54306;BME280;66145;45.188;5.712;2023-02-08T15:07:57;100412.88;;;15.08;43.23
54306;BME280;66145;45.188;5.712;2023-02-08T15:10:24;100463.00;;;15.40;43.55
54306;BME280;66145;45.188;5.712;2023-02-08T15:12:56;100500.50;;;15.60;43.52
54306;BME280;66145;45.188;5.712;2023-02-08T15:15:30;100495.28;;;15.58;43.28